Time;durP1;ratioP1;P1;durP2;ratioP2;P2;SDS_P1;SDS_P2;PMS_P1;PMS_P2;Temp;Humidity;BMP_temperature;BMP_pressure;BME280_temperature;BME280_humidity;BME280_pressure;Samples;Min_cycle;Max_cycle;Signal;HPM_P1;HPM_P2
2022/10/14 00:00:12;;;;;;;11.95;7.22;;;14.70;99.90;;;;;;5105224;28;20074;-74
2022/10/14 00:02:38;;;;;;;13.13;6.78;;;14.70;99.90;;;;;;5094290;28;20380;-74
2022/10/14 00:05:04;;;;;;;12.68;6.70;;;14.70;99.90;;;;;;5096594;28;20027;-75
2022/10/14 00:07:30;;;;;;;12.70;7.03;;;14.80;99.90;;;;;;5097503;28;20112;-74
2022/10/14 00:09:55;;;;;;;14.60;7.22;;;14.80;99.90;;;;;;5107673;28;20073;-74
2022/10/14 00:12:21;;;;;;;14.70;6.90;;;14.70;99.90;;;;;;5106720;28;20035;-75
2022/10/14 00:14:46;;;;;;;14.65;6.63;;;14.70;99.90;;;;;;5094084;28;20054;-75
2022/10/14 00:17:12;;;;;;;18.35;7.03;;;14.70;99.90;;;;;;5112707;28;20708;-74
2022/10/14 00:19:38;;;;;;;13.93;7.07;;;14.70;99.90;;;;;;5093955;28;20020;-74
2022/10/14 00:22:03;;;;;;;15.70;7.28;;;14.60;99.90;;;;;;5103784;28;20106;-74
2022/10/14 00:24:29;;;;;;;14.75;7.10;;;14.60;99.90;;;;;;5093772;28;20043;-74
2022/10/14 00:26:54;;;;;;;12.88;7.00;;;14.60;99.90;;;;;;5110666;28;20028;-75
2022/10/14 00:29:20;;;;;;;13.25;7.30;;;14.60;99.90;;;;;;5079895;28;20036;-75
2022/10/14 00:31:46;;;;;;;13.45;6.82;;;14.60;99.90;;;;;;5090591;28;20020;-75
2022/10/14 00:34:14;;;;;;;17.60;7.35;;;14.60;99.90;;;;;;5075914;28;20512;-74
2022/10/14 00:36:40;;;;;;;15.90;6.53;;;14.60;99.90;;;;;;5090470;28;20024;-74
2022/10/14 00:39:06;;;;;;;15.23;7.43;;;14.60;99.90;;;;;;5078887;28;20035;-75
2022/10/14 00:41:33;;;;;;;14.77;7.63;;;14.60;99.90;;;;;;5092692;28;20024;-74
2022/10/14 00:44:06;;;;;;;12.13;6.90;;;14.60;99.90;;;;;;5084330;28;20065;-74
2022/10/14 00:46:37;;;;;;;14.20;6.75;;;14.60;99.90;;;;;;5084188;28;20020;-74
2022/10/14 00:49:25;;;;;;;11.35;6.65;;;14.60;99.90;;;;;;5092646;28;20456;-75
2022/10/14 00:51:57;;;;;;;9.73;6.40;;;14.60;99.90;;;;;;5101814;28;20077;-75
2022/10/14 00:54:28;;;;;;;15.07;7.18;;;14.60;99.90;;;;;;5084831;28;20069;-75
2022/10/14 00:56:55;;;;;;;19.25;7.15;;;14.60;99.90;;;;;;5092269;28;20444;-74
2022/10/14 00:59:20;;;;;;;13.98;6.93;;;14.50;99.90;;;;;;5079075;28;20040;-74
2022/10/14 01:01:46;;;;;;;16.65;7.63;;;14.50;99.90;;;;;;5088990;28;20373;-75
2022/10/14 01:04:12;;;;;;;16.08;7.07;;;14.50;99.90;;;;;;5085121;28;20024;-74
2022/10/14 01:07:17;;;;;;;14.85;6.95;;;14.50;99.90;;;;;;5082734;28;20081;-74
2022/10/14 01:10:05;;;;;;;12.50;6.55;;;14.50;99.90;;;;;;5082222;28;20076;-74
2022/10/14 01:13:16;;;;;;;13.38;6.97;;;14.60;99.90;;;;;;5083835;28;20357;-74
2022/10/14 01:16:03;;;;;;;12.65;6.00;;;14.50;99.90;;;;;;5071052;28;20024;-73
2022/10/14 01:18:43;;;;;;;14.32;6.20;;;14.50;99.90;;;;;;5091288;28;20023;-74
2022/10/14 01:21:20;;;;;;;12.02;6.70;;;14.50;99.90;;;;;;5078667;28;20048;-74
2022/10/14 01:24:07;;;;;;;12.13;6.18;;;14.50;99.90;;;;;;5090036;28;20024;-74
2022/10/14 01:27:14;;;;;;;12.00;5.43;;;14.50;99.90;;;;;;5093807;28;20051;-74
2022/10/14 01:29:58;;;;;;;14.52;6.90;;;14.50;99.90;;;;;;5081424;28;20051;-74
2022/10/14 01:32:29;;;;;;;12.60;5.93;;;14.40;99.90;;;;;;5092824;28;20020;-75
2022/10/14 01:35:17;;;;;;;13.27;6.32;;;14.50;99.90;;;;;;5095783;28;20024;-74
2022/10/14 01:37:52;;;;;;;11.98;5.70;;;14.50;99.90;;;;;;5099737;28;20054;-74
2022/10/14 01:40:31;;;;;;;12.43;5.85;;;14.50;99.90;;;;;;5091964;28;20032;-75
2022/10/14 01:42:59;;;;;;;14.68;6.65;;;14.50;99.90;;;;;;5096090;28;20028;-74
2022/10/14 01:45:27;;;;;;;11.80;6.38;;;14.40;99.90;;;;;;5095625;28;20024;-74
2022/10/14 01:47:54;;;;;;;11.40;5.30;;;14.50;99.90;;;;;;5113937;28;20019;-74
2022/10/14 01:50:24;;;;;;;11.23;5.88;;;14.50;99.90;;;;;;5090072;28;20028;-74
2022/10/14 01:52:58;;;;;;;11.98;5.72;;;14.50;99.90;;;;;;5090745;28;20449;-74
2022/10/14 01:55:27;;;;;;;11.82;6.32;;;14.50;99.90;;;;;;5094760;28;20092;-73
2022/10/14 01:57:55;;;;;;;12.68;6.53;;;14.50;99.90;;;;;;5091516;28;20028;-73
2022/10/14 02:00:21;;;;;;;13.88;6.53;;;14.50;99.90;;;;;;5103644;28;20071;-73
2022/10/14 02:02:47;;;;;;;14.48;7.25;;;14.50;99.90;;;;;;5091707;28;20456;-73
2022/10/14 02:05:30;;;;;;;12.00;6.25;;;14.50;99.90;;;;;;5093094;28;20051;-73
2022/10/14 02:08:22;;;;;;;18.55;6.50;;;14.50;99.90;;;;;;5093864;28;20106;-74
2022/10/14 02:11:15;;;;;;;13.10;6.03;;;14.50;99.90;;;;;;5093393;28;20031;-73
2022/10/14 02:14:12;;;;;;;10.57;6.00;;;14.50;99.90;;;;;;5075295;28;20024;-73
2022/10/14 02:16:47;;;;;;;11.52;6.45;;;14.50;99.90;;;;;;5075326;28;20023;-73
2022/10/14 02:19:22;;;;;;;13.73;5.85;;;14.40;99.90;;;;;;5092908;28;20024;-73
2022/10/14 02:22:13;;;;;;;14.18;6.07;;;14.50;99.90;;;;;;5075450;28;20035;-73
2022/10/14 02:24:43;;;;;;;10.73;6.05;;;14.40;99.90;;;;;;5060715;28;20067;-74
2022/10/14 02:27:12;;;;;;;14.23;5.97;;;14.40;99.90;;;;;;5092509;28;20113;-73
2022/10/14 02:29:40;;;;;;;12.30;6.18;;;14.40;99.90;;;;;;5075097;28;20119;-73
2022/10/14 02:32:07;;;;;;;14.77;6.57;;;14.40;99.90;;;;;;5092746;28;20099;-73
2022/10/14 02:34:34;;;;;;;12.20;5.80;;;14.40;99.90;;;;;;5093253;28;20028;-73
2022/10/14 02:37:01;;;;;;;14.80;6.60;;;14.30;99.90;;;;;;5074488;28;20110;-74
2022/10/14 02:39:31;;;;;;;12.48;5.70;;;14.40;99.90;;;;;;5074860;28;20037;-73
2022/10/14 02:41:57;;;;;;;9.70;5.85;;;14.40;99.90;;;;;;5074515;28;20028;-73
2022/10/14 02:44:23;;;;;;;11.23;6.10;;;14.30;99.90;;;;;;5092806;28;20028;-74
2022/10/14 02:46:48;;;;;;;14.45;5.80;;;14.30;99.90;;;;;;5074727;28;20024;-73
2022/10/14 02:49:15;;;;;;;11.57;6.50;;;14.30;99.90;;;;;;5079425;28;20032;-73
2022/10/14 02:51:41;;;;;;;13.20;6.22;;;14.20;99.90;;;;;;5094138;28;20024;-73
2022/10/14 02:54:06;;;;;;;9.30;5.57;;;14.30;99.90;;;;;;5112812;28;20043;-74
2022/10/14 02:56:32;;;;;;;12.25;5.75;;;14.20;99.90;;;;;;5111218;28;20107;-73
2022/10/14 02:58:57;;;;;;;9.60;5.55;;;14.20;99.90;;;;;;5090579;28;20032;-74
2022/10/14 03:01:23;;;;;;;11.43;5.57;;;14.20;99.90;;;;;;5089001;28;20483;-74
2022/10/14 03:03:48;;;;;;;9.10;5.75;;;14.20;99.90;;;;;;5085622;28;20038;-74
2022/10/14 03:06:14;;;;;;;13.05;6.90;;;14.30;99.90;;;;;;5108997;28;20027;-73
2022/10/14 03:08:40;;;;;;;9.15;5.30;;;14.30;99.90;;;;;;5087158;28;20594;-74
2022/10/14 03:11:05;;;;;;;8.13;5.40;;;14.30;99.90;;;;;;5089829;28;20023;-74
2022/10/14 03:13:31;;;;;;;12.68;5.57;;;14.30;99.90;;;;;;5093137;28;20027;-74
2022/10/14 03:15:57;;;;;;;11.85;6.15;;;14.30;99.90;;;;;;5093213;28;20475;-74
2022/10/14 03:18:22;;;;;;;8.50;5.25;;;14.30;99.90;;;;;;5090732;28;20056;-74
2022/10/14 03:20:48;;;;;;;12.43;5.18;;;14.30;99.90;;;;;;5090545;28;20132;-74
2022/10/14 03:23:14;;;;;;;9.88;5.47;;;14.30;99.90;;;;;;5109759;28;20024;-73
2022/10/14 03:25:42;;;;;;;10.77;5.68;;;14.40;99.90;;;;;;5112689;28;20050;-73
2022/10/14 03:28:07;;;;;;;10.95;5.07;;;14.40;99.90;;;;;;5096431;28;20468;-73
2022/10/14 03:30:33;;;;;;;9.07;5.05;;;14.40;99.90;;;;;;5115167;28;20030;-74
2022/10/14 03:32:58;;;;;;;10.95;5.40;;;14.40;99.90;;;;;;5079681;28;20449;-73
2022/10/14 03:35:24;;;;;;;8.82;5.03;;;14.40;99.90;;;;;;5077988;28;20028;-73
2022/10/14 03:37:52;;;;;;;10.95;5.00;;;14.40;99.90;;;;;;5078478;28;20035;-73
2022/10/14 03:40:17;;;;;;;7.10;4.50;;;14.40;99.90;;;;;;5077681;28;20457;-73
2022/10/14 03:42:43;;;;;;;14.70;5.30;;;14.40;99.90;;;;;;5078293;28;20039;-73
2022/10/14 03:45:09;;;;;;;8.15;4.88;;;14.40;99.90;;;;;;5077849;28;20055;-74
2022/10/14 03:47:34;;;;;;;8.68;4.75;;;14.40;99.90;;;;;;5096114;28;20024;-74
2022/10/14 03:50:01;;;;;;;10.68;4.93;;;14.40;99.90;;;;;;5078173;28;20031;-73
2022/10/14 03:52:27;;;;;;;8.80;4.53;;;14.40;99.90;;;;;;5077547;28;20123;-74
2022/10/14 03:54:52;;;;;;;8.40;4.45;;;14.40;99.90;;;;;;5077769;28;20166;-74
2022/10/14 03:57:18;;;;;;;9.57;4.88;;;14.30;99.90;;;;;;5077443;28;20035;-73
2022/10/14 03:59:44;;;;;;;8.85;4.68;;;14.30;99.90;;;;;;5077942;28;20035;-73
2022/10/14 04:02:09;;;;;;;7.50;4.60;;;14.30;99.90;;;;;;5077535;28;20032;-73
2022/10/14 04:04:35;;;;;;;9.48;4.60;;;14.30;99.90;;;;;;5077955;28;20026;-73
2022/10/14 04:07:00;;;;;;;10.50;5.03;;;14.30;99.90;;;;;;5077804;28;20460;-73
2022/10/14 04:09:27;;;;;;;10.82;4.93;;;14.20;99.90;;;;;;5077307;28;20051;-73
2022/10/14 04:11:55;;;;;;;12.95;4.78;;;14.20;99.90;;;;;;5077676;28;20557;-73
2022/10/14 04:14:22;;;;;;;8.85;4.40;;;14.20;99.90;;;;;;5077103;28;20373;-73
2022/10/14 04:16:47;;;;;;;10.38;5.32;;;14.10;99.90;;;;;;5077289;28;20030;-73
2022/10/14 04:19:13;;;;;;;11.70;4.47;;;14.10;99.90;;;;;;5076948;28;20122;-73
2022/10/14 04:21:38;;;;;;;7.35;4.68;;;14.00;99.90;;;;;;5077689;28;20439;-73
2022/10/14 04:24:04;;;;;;;8.38;4.20;;;14.00;99.90;;;;;;5077568;28;20020;-73
2022/10/14 04:26:30;;;;;;;9.02;4.60;;;14.00;99.90;;;;;;5077338;28;20062;-73
2022/10/14 04:28:55;;;;;;;10.70;4.80;;;13.90;99.90;;;;;;5077581;28;20119;-73
2022/10/14 04:31:21;;;;;;;9.75;4.78;;;13.80;99.90;;;;;;5076520;28;20027;-73
2022/10/14 04:33:47;;;;;;;7.03;4.30;;;13.80;99.90;;;;;;5077188;28;20058;-73
2022/10/14 04:36:13;;;;;;;7.95;4.28;;;13.80;99.90;;;;;;5076538;28;20500;-73
2022/10/14 04:38:38;;;;;;;6.88;4.05;;;13.80;99.90;;;;;;5077155;28;20024;-73
2022/10/14 04:41:04;;;;;;;6.60;3.70;;;13.80;99.90;;;;;;5077151;28;20111;-73
2022/10/14 04:43:30;;;;;;;10.30;4.10;;;13.80;99.90;;;;;;5094988;28;20024;-73
2022/10/14 04:45:56;;;;;;;7.13;4.13;;;13.80;99.90;;;;;;5095490;28;20032;-73
2022/10/14 04:48:22;;;;;;;7.85;4.03;;;13.70;99.90;;;;;;5094453;28;20059;-73
2022/10/14 04:50:52;;;;;;;11.45;4.43;;;13.70;99.90;;;;;;5094887;28;20374;-73
2022/10/14 04:53:18;;;;;;;7.78;4.55;;;13.70;99.90;;;;;;5076433;28;20031;-73
2022/10/14 04:55:45;;;;;;;7.88;4.05;;;13.70;99.90;;;;;;5076506;28;20122;-73
2022/10/14 04:58:11;;;;;;;8.13;3.92;;;13.70;99.90;;;;;;5076352;28;20497;-73
2022/10/14 05:00:38;;;;;;;6.65;3.80;;;13.70;99.90;;;;;;5076758;28;20107;-75
2022/10/14 05:03:03;;;;;;;8.52;4.13;;;13.70;99.90;;;;;;5094610;28;20027;-73
2022/10/14 05:05:29;;;;;;;8.82;3.97;;;13.70;99.90;;;;;;5076132;28;20528;-74
2022/10/14 05:07:55;;;;;;;8.48;3.97;;;13.60;99.90;;;;;;5094749;28;20028;-74
2022/10/14 05:10:21;;;;;;;7.38;3.95;;;13.60;99.90;;;;;;5075948;28;20065;-73
2022/10/14 05:12:47;;;;;;;10.95;3.95;;;13.60;99.90;;;;;;5076507;28;20035;-74
2022/10/14 05:15:12;;;;;;;4.85;3.50;;;13.60;99.90;;;;;;5093894;28;20032;-73
2022/10/14 05:17:38;;;;;;;7.25;3.42;;;13.60;99.90;;;;;;5076423;28;20035;-74
2022/10/14 05:20:05;;;;;;;6.55;4.00;;;13.60;99.90;;;;;;5076210;28;20108;-74
2022/10/14 05:22:31;;;;;;;7.47;3.92;;;13.60;99.90;;;;;;5089200;28;20070;-74
2022/10/14 05:24:56;;;;;;;4.70;3.28;;;13.60;99.90;;;;;;5114687;28;20075;-74
2022/10/14 05:27:22;;;;;;;8.15;3.65;;;13.60;99.90;;;;;;5096079;28;20027;-74
2022/10/14 05:29:47;;;;;;;6.80;3.28;;;13.60;99.90;;;;;;5096557;28;20036;-74
2022/10/14 05:32:14;;;;;;;7.97;3.50;;;13.60;99.90;;;;;;5114327;28;20349;-74
2022/10/14 05:34:39;;;;;;;6.97;3.65;;;13.60;99.90;;;;;;5096746;28;20059;-74
2022/10/14 05:37:05;;;;;;;8.30;3.90;;;13.70;99.90;;;;;;5096569;28;20055;-73
2022/10/14 05:39:31;;;;;;;7.53;3.17;;;13.70;99.90;;;;;;5095719;28;20418;-74
2022/10/14 05:41:56;;;;;;;7.88;3.88;;;13.70;99.90;;;;;;5114795;28;20027;-73
2022/10/14 05:44:22;;;;;;;8.50;3.60;;;13.70;99.90;;;;;;5113997;28;20028;-73
2022/10/14 05:46:47;;;;;;;6.82;3.65;;;13.70;99.90;;;;;;5095544;28;20425;-73
2022/10/14 05:49:13;;;;;;;5.90;3.20;;;13.70;99.90;;;;;;5095153;28;20483;-74
2022/10/14 05:51:39;;;;;;;6.47;3.33;;;13.70;99.90;;;;;;5096133;28;20118;-73
2022/10/14 05:54:05;;;;;;;6.63;3.40;;;13.80;99.90;;;;;;5095995;28;20023;-74
2022/10/14 05:56:30;;;;;;;7.60;3.30;;;13.80;99.90;;;;;;5113781;28;20380;-74
2022/10/14 05:58:56;;;;;;;6.05;3.25;;;13.80;99.90;;;;;;5095912;28;20473;-74
2022/10/14 06:01:22;;;;;;;6.55;3.67;;;13.80;99.90;;;;;;5095331;28;20031;-74
2022/10/14 06:03:51;;;;;;;5.32;3.38;;;13.80;99.90;;;;;;5095820;28;20027;-74
2022/10/14 06:06:18;;;;;;;6.88;3.72;;;13.90;99.90;;;;;;5095327;28;20023;-74
2022/10/14 06:08:44;;;;;;;11.25;3.63;;;13.90;99.90;;;;;;5096095;28;20388;-73
2022/10/14 06:11:10;;;;;;;5.10;3.55;;;13.90;99.90;;;;;;5095667;28;20031;-73
2022/10/14 06:13:36;;;;;;;12.55;3.95;;;13.90;99.90;;;;;;5095455;28;20020;-73
2022/10/14 06:16:07;;;;;;;5.80;3.50;;;13.90;99.90;;;;;;5095712;28;20024;-73
2022/10/14 06:18:34;;;;;;;6.00;3.50;;;14.00;99.90;;;;;;5095013;28;20031;-73
2022/10/14 06:20:59;;;;;;;7.18;3.35;;;13.90;99.90;;;;;;5095181;28;20028;-73
2022/10/14 06:23:25;;;;;;;6.78;3.60;;;14.00;99.90;;;;;;5094977;28;20036;-73
2022/10/14 06:25:52;;;;;;;7.22;3.40;;;14.00;99.90;;;;;;5094964;28;20134;-73
2022/10/14 06:28:17;;;;;;;5.97;3.33;;;14.10;99.90;;;;;;5113156;28;20108;-73
2022/10/14 06:30:51;;;;;;;6.60;3.53;;;14.10;99.90;;;;;;5095336;28;20055;-73
2022/10/14 06:33:18;;;;;;;7.28;3.50;;;14.10;99.90;;;;;;5094667;28;20031;-73
2022/10/14 06:35:43;;;;;;;5.68;3.17;;;14.10;99.90;;;;;;5113583;28;20020;-73
2022/10/14 06:38:09;;;;;;;5.50;3.30;;;14.20;99.90;;;;;;5095338;28;20031;-73
2022/10/14 06:40:35;;;;;;;6.65;3.45;;;14.20;99.90;;;;;;5113236;28;20032;-73
2022/10/14 06:43:01;;;;;;;7.20;3.35;;;14.20;99.90;;;;;;5095206;28;20114;-73
2022/10/14 06:45:26;;;;;;;5.95;3.47;;;14.20;99.90;;;;;;5113217;28;20062;-73
2022/10/14 06:47:52;;;;;;;7.35;3.60;;;14.30;99.90;;;;;;5113363;28;20043;-73
2022/10/14 06:50:18;;;;;;;5.65;3.25;;;14.30;99.90;;;;;;5112793;28;20031;-73
2022/10/14 06:52:46;;;;;;;6.97;3.67;;;14.30;99.90;;;;;;5095100;28;20116;-73
2022/10/14 06:55:13;;;;;;;8.90;3.10;;;14.40;99.90;;;;;;5094796;28;20031;-73
2022/10/14 06:57:39;;;;;;;4.60;3.30;;;14.40;99.90;;;;;;5095050;28;20032;-73
2022/10/14 07:00:08;;;;;;;7.32;3.45;;;14.50;99.90;;;;;;5111831;28;20510;-73
2022/10/14 07:02:36;;;;;;;7.28;3.30;;;14.50;99.90;;;;;;5090433;28;20032;-74
2022/10/14 07:05:02;;;;;;;6.18;3.20;;;14.50;99.90;;;;;;5094258;28;20023;-74
2022/10/14 07:07:27;;;;;;;5.90;3.72;;;14.50;99.90;;;;;;5093649;28;20035;-73
2022/10/14 07:09:54;;;;;;;8.15;3.47;;;14.60;99.90;;;;;;5113063;28;20546;-73
2022/10/14 07:12:20;;;;;;;5.43;3.15;;;14.60;99.90;;;;;;5091428;28;20107;-74
2022/10/14 07:14:45;;;;;;;7.18;3.13;;;14.60;99.90;;;;;;5094529;28;20087;-73
2022/10/14 07:17:11;;;;;;;9.13;3.20;;;14.60;99.90;;;;;;5094846;28;20027;-73
2022/10/14 07:19:36;;;;;;;4.60;3.22;;;14.60;99.90;;;;;;5093751;28;20444;-73
2022/10/14 07:22:02;;;;;;;7.03;3.33;;;14.70;99.90;;;;;;5112666;28;20032;-75
2022/10/14 07:24:27;;;;;;;5.85;3.65;;;14.80;99.90;;;;;;5091917;28;20067;-73
2022/10/14 07:26:53;;;;;;;6.00;3.70;;;14.80;99.90;;;;;;5074588;28;20392;-73
2022/10/14 07:29:18;;;;;;;9.35;3.42;;;14.90;99.90;;;;;;5073682;28;20030;-74
2022/10/14 07:31:44;;;;;;;6.70;3.22;;;14.90;99.90;;;;;;5074877;28;20148;-74
2022/10/14 07:34:10;;;;;;;7.03;3.33;;;14.90;99.90;;;;;;5090251;28;20411;-73
2022/10/14 07:36:35;;;;;;;6.25;3.20;;;14.90;99.90;;;;;;5076980;28;20315;-75
2022/10/14 07:39:01;;;;;;;6.28;3.35;;;15.00;99.90;;;;;;5093493;28;20028;-72
2022/10/14 07:41:27;;;;;;;5.05;2.92;;;15.00;99.90;;;;;;5092796;28;20092;-72
2022/10/14 07:44:07;;;;;;;10.68;3.20;;;15.10;99.90;;;;;;5086254;28;20030;-73
2022/10/14 07:46:35;;;;;;;5.70;3.47;;;15.00;99.90;;;;;;5094311;28;20066;-73
2022/10/14 07:49:06;;;;;;;5.50;2.92;;;15.10;99.90;;;;;;5111984;28;20070;-73
2022/10/14 07:51:32;;;;;;;6.07;3.33;;;15.10;99.90;;;;;;5110901;28;20028;-73
2022/10/14 07:54:00;;;;;;;4.82;3.00;;;15.10;99.90;;;;;;5093750;28;20302;-72
2022/10/14 07:56:27;;;;;;;7.43;3.38;;;15.20;99.90;;;;;;5110387;28;20031;-73
2022/10/14 07:58:53;;;;;;;5.28;3.20;;;15.20;99.90;;;;;;5077477;28;20027;-72
2022/10/14 08:01:19;;;;;;;8.32;3.67;;;15.20;99.90;;;;;;5076144;28;20039;-76
2022/10/14 08:03:46;;;;;;;7.45;3.58;;;15.20;99.90;;;;;;5093889;28;20035;-76
2022/10/14 08:06:12;;;;;;;9.00;3.53;;;15.30;99.90;;;;;;5094044;28;20062;-72
2022/10/14 08:08:39;;;;;;;19.92;10.00;;;15.30;99.90;;;;;;5107983;28;20028;-71
2022/10/14 08:11:11;;;;;;;12.80;6.53;;;15.30;99.90;;;;;;5084428;28;20020;-72
2022/10/14 08:13:37;;;;;;;6.80;3.88;;;15.40;99.90;;;;;;5084111;28;20534;-72
2022/10/14 08:16:13;;;;;;;6.32;3.58;;;15.40;99.90;;;;;;5092803;28;20023;-72
2022/10/14 08:18:38;;;;;;;7.45;3.47;;;15.40;99.90;;;;;;5080058;28;20031;-72
2022/10/14 08:21:04;;;;;;;8.43;3.45;;;15.40;99.90;;;;;;5089174;28;20032;-72
2022/10/14 08:23:31;;;;;;;5.57;3.15;;;15.40;99.90;;;;;;5105737;28;20099;-72
2022/10/14 08:25:59;;;;;;;8.32;3.17;;;15.50;99.90;;;;;;5099343;28;20101;-72
2022/10/14 08:28:25;;;;;;;6.60;3.30;;;15.50;99.90;;;;;;5092735;28;20119;-72
2022/10/14 08:30:52;;;;;;;6.03;3.03;;;15.50;99.90;;;;;;5090240;28;20111;-72
2022/10/14 08:33:18;;;;;;;6.95;3.70;;;15.50;99.90;;;;;;5086887;28;20457;-74
2022/10/14 08:35:44;;;;;;;7.63;3.08;;;15.50;99.90;;;;;;5090009;28;20028;-73
2022/10/14 08:38:09;;;;;;;7.80;3.30;;;15.60;99.90;;;;;;5086171;28;20031;-72
2022/10/14 08:41:15;;;;;;;9.63;3.03;;;15.60;99.90;;;;;;5079873;28;20024;-73
2022/10/14 08:43:49;;;;;;;6.47;3.17;;;15.70;99.90;;;;;;5100733;28;20680;-74
2022/10/14 08:46:25;;;;;;;8.45;3.42;;;15.80;99.90;;;;;;5093172;28;20047;-72
2022/10/14 08:49:01;;;;;;;6.82;3.13;;;15.80;99.90;;;;;;5100760;28;20038;-71
2022/10/14 08:51:30;;;;;;;8.02;3.10;;;15.90;99.90;;;;;;5084898;28;20024;-73
2022/10/14 08:54:05;;;;;;;7.18;3.50;;;15.90;99.90;;;;;;5076155;28;20487;-73
2022/10/14 08:56:33;;;;;;;7.68;3.45;;;16.00;99.90;;;;;;5092593;28;20036;-73
2022/10/14 08:59:07;;;;;;;9.57;3.22;;;16.00;99.90;;;;;;5083525;28;20349;-73
2022/10/14 09:01:37;;;;;;;5.90;2.90;;;16.00;99.90;;;;;;5087795;28;20077;-73
2022/10/14 09:04:11;;;;;;;9.43;3.42;;;16.10;99.90;;;;;;5114041;28;20035;-73
2022/10/14 09:06:40;;;;;;;7.97;3.17;;;16.00;99.90;;;;;;5098093;28;20019;-72
2022/10/14 09:09:06;;;;;;;5.40;3.25;;;16.10;99.90;;;;;;5088344;28;20418;-72
2022/10/14 09:11:39;;;;;;;10.52;3.55;;;16.10;99.90;;;;;;5087392;28;20020;-73
2022/10/14 09:14:08;;;;;;;10.63;4.28;;;16.10;99.90;;;;;;5098002;28;20024;-73
2022/10/14 09:16:37;;;;;;;10.38;3.88;;;16.20;99.90;;;;;;5078943;28;20087;-73
2022/10/14 09:19:08;;;;;;;8.05;4.13;;;16.20;99.90;;;;;;5087848;28;20039;-73
2022/10/14 09:21:41;;;;;;;6.72;3.80;;;16.30;99.90;;;;;;5104396;28;20032;-72
2022/10/14 09:24:19;;;;;;;8.68;3.85;;;16.30;99.90;;;;;;5094926;28;20039;-73
2022/10/14 09:26:47;;;;;;;8.57;3.92;;;16.40;99.90;;;;;;5076756;28;20043;-73
2022/10/14 09:29:27;;;;;;;6.10;3.67;;;16.50;99.90;;;;;;5083684;28;20161;-72
2022/10/14 09:31:57;;;;;;;7.38;3.75;;;16.50;99.90;;;;;;5088306;28;20068;-73
2022/10/14 09:34:46;;;;;;;7.00;3.95;;;16.60;99.90;;;;;;5091617;28;20062;-72
2022/10/14 09:37:24;;;;;;;7.68;3.85;;;16.60;99.90;;;;;;5092591;28;20020;-72
2022/10/14 09:39:52;;;;;;;8.88;4.07;;;16.60;99.90;;;;;;5087031;28;20028;-72
2022/10/14 09:42:47;;;;;;;7.78;3.53;;;16.60;99.90;;;;;;5091769;28;20028;-72
2022/10/14 09:45:19;;;;;;;9.60;3.92;;;16.70;99.90;;;;;;5086542;28;20028;-73
2022/10/14 09:47:58;;;;;;;10.10;4.10;;;16.80;99.90;;;;;;5091341;28;20114;-73
2022/10/14 09:50:29;;;;;;;11.18;3.80;;;16.80;99.90;;;;;;5089442;28;20074;-72
2022/10/14 09:53:06;;;;;;;7.93;3.17;;;16.80;99.90;;;;;;5075279;28;20082;-73
2022/10/14 09:55:32;;;;;;;9.32;3.85;;;16.90;99.90;;;;;;5091177;28;20375;-73
2022/10/14 09:58:05;;;;;;;6.55;3.47;;;16.80;99.90;;;;;;5091439;28;20369;-72
2022/10/14 10:00:33;;;;;;;7.53;3.55;;;16.90;99.90;;;;;;5090933;28;20930;-72
2022/10/14 10:02:59;;;;;;;5.72;3.08;;;16.90;99.90;;;;;;5091407;28;20019;-73
2022/10/14 10:05:30;;;;;;;7.60;2.80;;;16.90;99.90;;;;;;5090684;28;20453;-72
2022/10/14 10:08:04;;;;;;;;;;;16.90;99.90;;;;;;5093291;28;20027;-72
2022/10/14 10:10:30;;;;;;;5.90;2.40;;;16.90;99.90;;;;;;5074547;28;19921;-72
2022/10/14 10:12:57;;;;;;;6.57;2.85;;;16.90;99.90;;;;;;5091401;28;20018;-73
2022/10/14 10:15:23;;;;;;;4.90;2.30;;;16.80;99.90;;;;;;5091946;28;20150;-74
2022/10/14 10:17:49;;;;;;;8.02;3.03;;;16.90;99.90;;;;;;5088457;28;20114;-72
2022/10/14 10:20:27;;;;;;;6.13;2.95;;;16.90;99.90;;;;;;5092460;28;20051;-72
2022/10/14 10:22:54;;;;;;;6.63;2.80;;;17.00;99.90;;;;;;5091398;28;20020;-72
2022/10/14 10:25:25;;;;;;;6.00;2.55;;;17.00;99.90;;;;;;5099693;28;20075;-72
2022/10/14 10:27:51;;;;;;;4.35;2.60;;;17.00;99.90;;;;;;5093756;28;20028;-73
2022/10/14 10:30:17;;;;;;;6.28;2.80;;;16.90;99.90;;;;;;5093744;28;20027;-72
2022/10/14 10:33:07;;;;;;;4.93;2.95;;;16.90;99.90;;;;;;5093478;28;20027;-72
2022/10/14 10:36:04;;;;;;;5.63;2.65;;;16.90;99.90;;;;;;5093587;28;20114;-72
2022/10/14 10:38:48;;;;;;;6.55;2.85;;;17.00;99.90;;;;;;5076395;28;20054;-73
2022/10/14 10:41:46;;;;;;;5.32;2.47;;;16.90;99.90;;;;;;5103477;28;20024;-72
2022/10/14 10:44:30;;;;;;;4.28;2.70;;;17.10;99.90;;;;;;5090763;28;20023;-73
2022/10/14 10:47:34;;;;;;;6.68;2.70;;;17.10;99.90;;;;;;5080861;28;20050;-73
2022/10/14 10:50:08;;;;;;;7.90;3.10;;;17.20;99.90;;;;;;5078228;28;20461;-73
2022/10/14 10:53:00;;;;;;;4.20;2.20;;;17.20;99.90;;;;;;5091392;28;20028;-73
2022/10/14 10:55:55;;;;;;;5.80;2.10;;;17.30;99.90;;;;;;5092826;28;20080;-74
2022/10/14 10:58:50;;;;;;;5.63;2.50;;;17.40;99.90;;;;;;5093338;28;20366;-73
2022/10/14 11:01:39;;;;;;;3.70;1.50;;;17.40;99.90;;;;;;5087061;28;20044;-73
2022/10/14 11:04:23;;;;;;;4.85;2.10;;;17.40;99.90;;;;;;5093873;28;20027;-72
2022/10/14 11:13:11;;;;;;;4.28;1.80;;;17.30;99.90;;;;;;5110627;28;20035;-73
2022/10/14 11:15:57;;;;;;;4.53;1.65;;;17.20;99.90;;;;;;5092131;28;20034;-73
2022/10/14 11:18:46;;;;;;;4.18;1.90;;;17.30;99.90;;;;;;5091676;28;20420;-72
2022/10/14 11:21:11;;;;;;;5.07;1.85;;;17.30;99.90;;;;;;5091533;28;20035;-72
2022/10/14 11:24:00;;;;;;;3.83;1.70;;;17.50;99.90;;;;;;5092033;28;20027;-73
2022/10/14 11:26:52;;;;;;;4.28;1.70;;;17.60;99.90;;;;;;5108930;28;20055;-73
2022/10/14 11:29:23;;;;;;;3.33;1.55;;;17.70;99.90;;;;;;5092680;28;20042;-72
2022/10/14 11:32:13;;;;;;;3.22;1.80;;;17.80;99.90;;;;;;5088367;28;20070;-72
2022/10/14 11:35:06;;;;;;;2.65;1.83;;;17.90;99.90;;;;;;5091821;28;20035;-73
2022/10/14 11:37:58;;;;;;;4.75;1.60;;;18.10;99.90;;;;;;5091096;28;20365;-73
2022/10/14 11:40:50;;;;;;;3.80;1.80;;;18.20;99.90;;;;;;5093426;28;20032;-73
2022/10/14 11:43:41;;;;;;;4.57;1.60;;;18.10;99.90;;;;;;5111896;28;20118;-72
2022/10/14 11:46:11;;;;;;;2.88;1.80;;;18.10;99.90;;;;;;5112675;28;20067;-73
2022/10/14 11:48:51;;;;;;;5.05;3.08;;;18.20;99.90;;;;;;5096783;28;20077;-73
2022/10/14 11:51:23;;;;;;;4.88;1.92;;;18.20;99.90;;;;;;5105303;28;20099;-73
2022/10/14 11:54:17;;;;;;;2.67;1.65;;;18.20;99.90;;;;;;5096223;28;20020;-73
2022/10/14 11:56:54;;;;;;;3.75;1.50;;;18.10;99.90;;;;;;5111798;28;20038;-73
2022/10/14 11:59:35;;;;;;;2.70;1.58;;;18.10;99.90;;;;;;5115470;28;20031;-73
2022/10/14 12:02:09;;;;;;;2.77;1.50;;;18.10;99.90;;;;;;5088521;28;20032;-77
2022/10/14 12:04:37;;;;;;;4.07;1.55;;;18.00;99.90;;;;;;5080946;28;20052;-77
2022/10/14 12:07:25;;;;;;;6.10;1.90;;;18.00;99.90;;;;;;5098204;28;20027;-75
2022/10/14 12:10:00;;;;;;;3.38;1.92;;;18.00;99.90;;;;;;5084082;28;20036;-75
2022/10/14 12:12:27;;;;;;;6.18;2.58;;;17.90;99.90;;;;;;5110180;28;20034;-76
2022/10/14 12:15:06;;;;;;;3.72;1.70;;;17.80;99.90;;;;;;5110062;28;20020;-74
2022/10/14 12:17:48;;;;;;;8.75;2.70;;;17.90;99.90;;;;;;5086862;28;20020;-74
2022/10/14 12:20:37;;;;;;;5.00;2.28;;;17.90;99.90;;;;;;5080678;28;20032;-73
2022/10/14 12:23:07;;;;;;;4.70;1.90;;;17.90;99.90;;;;;;5083761;28;20043;-73
2022/10/14 12:25:45;;;;;;;6.85;1.73;;;17.80;99.90;;;;;;5091124;28;20097;-74
2022/10/14 12:28:13;;;;;;;7.07;1.88;;;17.80;99.90;;;;;;5097102;28;20464;-73
2022/10/14 12:30:40;;;;;;;6.35;1.98;;;17.80;99.90;;;;;;5095463;28;20035;-73
2022/10/14 12:33:09;;;;;;;4.93;2.10;;;17.80;99.90;;;;;;5096152;28;20027;-73
2022/10/14 12:35:50;;;;;;;3.17;1.95;;;17.80;99.90;;;;;;5102827;28;20118;-73
2022/10/14 12:38:17;;;;;;;6.00;2.00;;;17.90;99.90;;;;;;5111445;28;20027;-73
2022/10/14 12:40:43;;;;;;;5.50;2.20;;;18.00;99.90;;;;;;5089848;28;20044;-73
2022/10/14 12:43:34;;;;;;;4.93;2.53;;;18.10;99.90;;;;;;5088369;28;20020;-73
2022/10/14 12:46:18;;;;;;;5.87;1.93;;;18.10;99.90;;;;;;5080880;28;20028;-73
2022/10/14 12:48:50;;;;;;;8.90;1.98;;;18.00;99.90;;;;;;5092611;28;20035;-74
2022/10/14 12:51:21;;;;;;;5.93;2.00;;;18.00;99.90;;;;;;5104498;28;20050;-73
2022/10/14 12:54:11;;;;;;;4.95;1.73;;;17.90;99.90;;;;;;5089313;28;20024;-73
2022/10/14 12:56:57;;;;;;;4.68;1.77;;;18.00;99.90;;;;;;5091908;28;20032;-73
2022/10/14 12:59:36;;;;;;;4.60;1.80;;;18.10;99.90;;;;;;5095790;28;20027;-72
2022/10/14 13:02:35;;;;;;;14.48;2.65;;;18.10;99.90;;;;;;5114016;28;20034;-72
2022/10/14 13:05:26;;;;;;;4.97;2.15;;;18.10;99.90;;;;;;5089218;28;20024;-72
2022/10/14 13:08:19;;;;;;;2.90;1.90;;;18.10;99.90;;;;;;5094530;28;20027;-72
2022/10/14 13:10:54;;;;;;;3.25;1.63;;;18.10;99.90;;;;;;5099395;28;20020;-73